F/V Harvestor — WDC8229 — position and weather

sailwx.info

Track history (hours):
 
Tides and Currents Weather Stations Pressure Air Temp Water Temp Dewpoint Dewpoint Depression Visibility Wind Speed Wind Dir Waves Ship Positions

F/V Harvestor

Owner: F/V HARVESTOR INC., EDMONDS, WA. More information available from US FCC via Universal Licensing System and Coast Guard Vessel Documentation Center.

Last reported at 2017-Mar-30 13:33 UTC. Time now 2017-Mar-30 14:33 UTC.
Position N 48°08' W 123°25'.

Length 40 m.

Type: Fishing. MMSI: 367083650.

Date/timePositionNaut miles runAvg speedWind from/ knotsBaromVisibWave heightAir tempDewpointWater temp
2017-Mar-30 13:33N 48°08' W 123°25'0 0.0
2017-Mar-30 12:33N 48°08' W 123°25'0 0.0
2017-Mar-30 11:33N 48°08' W 123°25'1 1.3
2017-Mar-30 10:33N 48°08' W 123°23'6 5.8
2017-Mar-30 09:33N 48°10' W 123°15'7 6.6
2017-Mar-30 08:33N 48°13' W 123°06'6 6.2
2017-Mar-30 07:33N 48°13' W 122°57'5 5.1
2017-Mar-30 06:33N 48°13' W 122°49'4 3.9
2017-Mar-30 05:33N 48°10' W 122°45'10 9.4
2017-Mar-30 04:28N 48°02' W 122°37'9 9.8
2017-Mar-30 03:33N 47°55' W 122°29'9 8.9
2017-Mar-30 02:33N 47°46' W 122°25'9 8.7
2017-Mar-30 01:33N 47°38' W 122°27'9 8.5
2017-Mar-30 00:33N 47°29' W 122°30'9 8.8
2017-Mar-29 23:33N 47°21' W 122°33'6 5.5
2017-Mar-29 22:33N 47°15' W 122°34'15 0.8
2017-Mar-29 03:23N 47°09' W 122°54'13 7.1
2017-Mar-29 01:33N 47°13' W 122°36'9 8.9
2017-Mar-29 00:33N 47°22' W 122°33'8 8.1
2017-Mar-28 23:34N 47°29' W 122°30'8 8.4
2017-Mar-28 22:34N 47°38' W 122°28'8 7.9
2017-Mar-28 21:33N 47°46' W 122°28'8 8.0
2017-Mar-28 20:34N 47°53' W 122°30'8 7.7
2017-Mar-28 19:33N 47°59' W 122°37'7 7.0
2017-Mar-28 18:30N 48°06' W 122°40'7 6.6
2017-Mar-28 17:31N 48°10' W 122°48'7 7.1
2017-Mar-28 16:33N 48°11' W 122°58'8 7.8
2017-Mar-28 15:33N 48°11' W 123°10'8 8.0
2017-Mar-28 14:33N 48°08' W 123°22'3 2.5
2017-Mar-28 13:34N 48°08' W 123°25'0 0.2
2017-Mar-28 12:34N 48°08' W 123°25'0 0.0
2017-Mar-28 11:34N 48°08' W 123°25'0 0.0
2017-Mar-28 10:34N 48°08' W 123°25'6 5.8
2017-Mar-28 09:34N 48°10' W 123°17'7 7.1
2017-Mar-28 08:34N 48°12' W 123°07'8 7.6
2017-Mar-28 07:34N 48°12' W 122°55'9 8.8
2017-Mar-28 06:33N 48°09' W 122°43'1010.0
2017-Mar-28 05:33N 48°00' W 122°36'9 9.3
2017-Mar-28 04:34N 47°53' W 122°28'9 9.2
2017-Mar-28 03:34N 47°44' W 122°26'10 9.5
2017-Mar-28 02:34N 47°34' W 122°27'9 9.3
2017-Mar-28 01:34N 47°26' W 122°32'8 8.2
2017-Mar-28 00:33N 47°17' W 122°32'7 7.0
2017-Mar-27 23:33N 47°12' W 122°39'7 7.2
2017-Mar-27 22:31N 47°11' W 122°50'0 0.0
2017-Mar-27 00:33N 47°11' W 122°49'9 7.5
2017-Mar-26 23:24N 47°12' W 122°37'8 9.9
2017-Mar-26 22:34N 47°20' W 122°33'9 8.7
2017-Mar-26 21:34N 47°29' W 122°30'9 8.8
2017-Mar-26 20:34N 47°37' W 122°24'1 1.4
2017-Mar-26 19:34N 47°38' W 122°23'0 0.0
2017-Mar-26 18:34N 47°38' W 122°23'0 0.0
2017-Mar-26 17:34N 47°38' W 122°23'0 0.0
2017-Mar-26 16:34N 47°38' W 122°23'0 0.0
2017-Mar-26 15:33N 47°38' W 122°23'0 0.0
2017-Mar-26 14:34N 47°38' W 122°23'0 0.0
2017-Mar-26 13:33N 47°38' W 122°23'0 0.0
2017-Mar-26 12:34N 47°38' W 122°23'0 0.0
2017-Mar-26 11:34N 47°38' W 122°23'0 0.0
2017-Mar-26 10:34N 47°38' W 122°23'0 0.0
2017-Mar-26 09:34N 47°38' W 122°23'0 0.0
2017-Mar-26 08:34N 47°38' W 122°23'0 0.0
2017-Mar-26 07:34N 47°38' W 122°23'0 0.0
2017-Mar-26 06:34N 47°38' W 122°23'0 0.0
2017-Mar-26 05:34N 47°38' W 122°23'0 0.0
2017-Mar-26 04:34N 47°38' W 122°23'0 0.0
2017-Mar-26 03:34N 47°38' W 122°23'0 0.0
2017-Mar-26 02:34N 47°38' W 122°23'0 0.0
2017-Mar-26 01:34N 47°38' W 122°23'0 0.0
2017-Mar-26 00:34N 47°38' W 122°23'0 0.0
2017-Mar-25 23:34N 47°38' W 122°23'0 0.0
2017-Mar-25 22:34N 47°38' W 122°23'0 0.0
2017-Mar-25 21:34N 47°38' W 122°23'4 4.3
2017-Mar-25 20:34N 47°41' W 122°28'8 7.5
2017-Mar-25 19:34N 47°48' W 122°28'8 8.3
2017-Mar-25 18:34N 47°56' W 122°32'9 7.8
2017-Mar-25 17:27N 48°03' W 122°40'6 6.4
2017-Mar-25 16:33N 48°08' W 122°43'6 6.4
2017-Mar-25 15:33N 48°11' W 122°52'7 7.4
2017-Mar-25 14:34N 48°12' W 123°03'8 8.4
2017-Mar-25 13:34N 48°10' W 123°15'7 6.6
2017-Mar-25 12:34N 48°08' W 123°25'0 0.0
2017-Mar-25 11:34N 48°08' W 123°25'6 6.3
2017-Mar-25 10:33N 48°10' W 123°16'6 6.5
2017-Mar-25 09:34N 48°12' W 123°07'6 6.4
2017-Mar-25 08:33N 48°12' W 122°57'7 7.1
2017-Mar-25 07:33N 48°11' W 122°47'6 6.2
2017-Mar-25 06:33N 48°07' W 122°40'8 8.1
2017-Mar-25 05:33N 47°60' W 122°35'8 8.4
2017-Mar-25 04:34N 47°53' W 122°28'9 9.1
2017-Mar-25 03:34N 47°44' W 122°26'9 9.2
2017-Mar-25 02:34N 47°35' W 122°27'10 9.5
2017-Mar-25 01:33N 47°26' W 122°31'10 9.7
2017-Mar-25 00:33N 47°16' W 122°33'11 0.5
2017-Mar-24 02:19N 47°10' W 122°47'5 7.0
2017-Mar-24 01:32N 47°11' W 122°39'7 6.8
2017-Mar-24 00:34N 47°16' W 122°33'7 7.3
2017-Mar-23 23:33N 47°24' W 122°32'8 8.1
2017-Mar-23 22:34N 47°32' W 122°29'8 7.6
2017-Mar-23 21:34N 47°39' W 122°29'7 7.3
2017-Mar-23 20:34N 47°46' W 122°27'9 8.7
2017-Mar-23 19:34N 47°55' W 122°31'9 8.2
2017-Mar-23 18:31N 48°01' W 122°39'8 7.6
2017-Mar-23 17:28N 48°09' W 122°44'8 9.0
2017-Mar-23 16:33N 48°11' W 122°56'9 8.5
2017-Mar-23 15:33N 48°11' W 123°09'8 8.1
2017-Mar-23 14:33N 48°09' W 123°20'3 3.2
2017-Mar-23 13:34N 48°08' W 123°25'0 0.0
2017-Mar-23 12:34N 48°08' W 123°25'0 0.0
2017-Mar-23 11:33N 48°08' W 123°25'3 3.2
2017-Mar-23 10:33N 48°09' W 123°20'8 8.0
2017-Mar-23 09:33N 48°12' W 123°09'8 7.7
2017-Mar-23 08:34N 48°12' W 122°58'8 7.8
2017-Mar-23 07:33N 48°11' W 122°46'6 5.9
2017-Mar-23 06:34N 48°07' W 122°39'7 6.8
2017-Mar-23 05:32N 48°01' W 122°36'7 7.5
2017-Mar-23 04:34N 47°55' W 122°29'9 8.8
2017-Mar-23 03:34N 47°47' W 122°26'10 9.7
2017-Mar-23 02:34N 47°37' W 122°27'9 9.4
2017-Mar-23 01:34N 47°28' W 122°31'10 9.6
2017-Mar-23 00:33N 47°18' W 122°33'14 0.6
2017-Mar-22 02:13N 47°11' W 122°49'6 7.2
2017-Mar-22 01:21N 47°11' W 122°40'6 7.7
2017-Mar-22 00:34N 47°16' W 122°34'7 6.8
2017-Mar-21 23:34N 47°22' W 122°32'8 8.3
2017-Mar-21 22:34N 47°30' W 122°29'9 8.6
2017-Mar-21 21:34N 47°39' W 122°28'8 8.1
2017-Mar-21 20:34N 47°47' W 122°28'8 7.8
2017-Mar-21 19:34N 47°55' W 122°31'8 7.5
2017-Mar-21 18:33N 48°01' W 122°38'8 8.1
2017-Mar-21 17:31N 48°08' W 122°43'9 8.9
2017-Mar-21 16:34N 48°11' W 122°55'9 8.5
2017-Mar-21 15:34N 48°11' W 123°08'9 9.3
2017-Mar-21 14:33N 48°09' W 123°22'2 2.3
2017-Mar-21 13:34N 48°08' W 123°25'0 0.0
2017-Mar-21 12:34N 48°08' W 123°25'5 4.6
2017-Mar-21 11:34N 48°10' W 123°19'8 8.3
2017-Mar-21 10:34N 48°13' W 123°07'8 8.3
2017-Mar-21 09:34N 48°12' W 122°55'8 8.4
2017-Mar-21 08:33N 48°09' W 122°43'8 7.8
2017-Mar-21 07:33N 48°02' W 122°38'7 7.5
2017-Mar-21 06:34N 47°57' W 122°31'8 7.6
2017-Mar-21 05:34N 47°49' W 122°27'7 7.1
2017-Mar-21 04:34N 47°42' W 122°26'7 6.8
2017-Mar-21 03:34N 47°36' W 122°27'7 7.1
2017-Mar-21 02:34N 47°29' W 122°30'8 8.1
2017-Mar-21 01:34N 47°21' W 122°32'8 8.2
2017-Mar-21 00:34N 47°13' W 122°36'  
Track history (hours):
 
Tides and Currents Weather Stations Pressure Air Temp Water Temp Dewpoint Dewpoint Depression Visibility Wind Speed Wind Dir Waves Ship Positions

F/V Harvestor

Owner: F/V HARVESTOR INC., EDMONDS, WA. More information available from US FCC via Universal Licensing System and Coast Guard Vessel Documentation Center.

Last reported at 2017-Mar-30 13:33 UTC. Time now 2017-Mar-30 14:33 UTC.
Position N 48°08' W 123°25'.

Length 40 m.

Type: Fishing. MMSI: 367083650.

Date/timePositionNaut miles runAvg speedWind from/ knotsBaromVisibWave heightAir tempDewpointWater temp
2017-Mar-30 13:33N 48°08' W 123°25'0 0.0
2017-Mar-30 12:33N 48°08' W 123°25'0 0.0
2017-Mar-30 11:33N 48°08' W 123°25'1 1.3
2017-Mar-30 10:33N 48°08' W 123°23'6 5.8
2017-Mar-30 09:33N 48°10' W 123°15'7 6.6
2017-Mar-30 08:33N 48°13' W 123°06'6 6.2
2017-Mar-30 07:33N 48°13' W 122°57'5 5.1
2017-Mar-30 06:33N 48°13' W 122°49'4 3.9
2017-Mar-30 05:33N 48°10' W 122°45'10 9.4
2017-Mar-30 04:28N 48°02' W 122°37'9 9.8
2017-Mar-30 03:33N 47°55' W 122°29'9 8.9
2017-Mar-30 02:33N 47°46' W 122°25'9 8.7
2017-Mar-30 01:33N 47°38' W 122°27'9 8.5
2017-Mar-30 00:33N 47°29' W 122°30'9 8.8
2017-Mar-29 23:33N 47°21' W 122°33'6 5.5
2017-Mar-29 22:33N 47°15' W 122°34'15 0.8
2017-Mar-29 03:23N 47°09' W 122°54'13 7.1
2017-Mar-29 01:33N 47°13' W 122°36'9 8.9
2017-Mar-29 00:33N 47°22' W 122°33'8 8.1
2017-Mar-28 23:34N 47°29' W 122°30'8 8.4
2017-Mar-28 22:34N 47°38' W 122°28'8 7.9
2017-Mar-28 21:33N 47°46' W 122°28'8 8.0
2017-Mar-28 20:34N 47°53' W 122°30'8 7.7
2017-Mar-28 19:33N 47°59' W 122°37'7 7.0
2017-Mar-28 18:30N 48°06' W 122°40'7 6.6
2017-Mar-28 17:31N 48°10' W 122°48'7 7.1
2017-Mar-28 16:33N 48°11' W 122°58'8 7.8
2017-Mar-28 15:33N 48°11' W 123°10'8 8.0
2017-Mar-28 14:33N 48°08' W 123°22'3 2.5
2017-Mar-28 13:34N 48°08' W 123°25'0 0.2
2017-Mar-28 12:34N 48°08' W 123°25'0 0.0
2017-Mar-28 11:34N 48°08' W 123°25'0 0.0
2017-Mar-28 10:34N 48°08' W 123°25'6 5.8
2017-Mar-28 09:34N 48°10' W 123°17'7 7.1
2017-Mar-28 08:34N 48°12' W 123°07'8 7.6
2017-Mar-28 07:34N 48°12' W 122°55'9 8.8
2017-Mar-28 06:33N 48°09' W 122°43'1010.0
2017-Mar-28 05:33N 48°00' W 122°36'9 9.3
2017-Mar-28 04:34N 47°53' W 122°28'9 9.2
2017-Mar-28 03:34N 47°44' W 122°26'10 9.5
2017-Mar-28 02:34N 47°34' W 122°27'9 9.3
2017-Mar-28 01:34N 47°26' W 122°32'8 8.2
2017-Mar-28 00:33N 47°17' W 122°32'7 7.0
2017-Mar-27 23:33N 47°12' W 122°39'7 7.2
2017-Mar-27 22:31N 47°11' W 122°50'0 0.0
2017-Mar-27 00:33N 47°11' W 122°49'9 7.5
2017-Mar-26 23:24N 47°12' W 122°37'8 9.9
2017-Mar-26 22:34N 47°20' W 122°33'9 8.7
2017-Mar-26 21:34N 47°29' W 122°30'9 8.8
2017-Mar-26 20:34N 47°37' W 122°24'1 1.4
2017-Mar-26 19:34N 47°38' W 122°23'0 0.0
2017-Mar-26 18:34N 47°38' W 122°23'0 0.0
2017-Mar-26 17:34N 47°38' W 122°23'0 0.0
2017-Mar-26 16:34N 47°38' W 122°23'0 0.0
2017-Mar-26 15:33N 47°38' W 122°23'0 0.0
2017-Mar-26 14:34N 47°38' W 122°23'0 0.0
2017-Mar-26 13:33N 47°38' W 122°23'0 0.0
2017-Mar-26 12:34N 47°38' W 122°23'0 0.0
2017-Mar-26 11:34N 47°38' W 122°23'0 0.0
2017-Mar-26 10:34N 47°38' W 122°23'0 0.0
2017-Mar-26 09:34N 47°38' W 122°23'0 0.0
2017-Mar-26 08:34N 47°38' W 122°23'0 0.0
2017-Mar-26 07:34N 47°38' W 122°23'0 0.0
2017-Mar-26 06:34N 47°38' W 122°23'0 0.0
2017-Mar-26 05:34N 47°38' W 122°23'0 0.0
2017-Mar-26 04:34N 47°38' W 122°23'0 0.0
2017-Mar-26 03:34N 47°38' W 122°23'0 0.0
2017-Mar-26 02:34N 47°38' W 122°23'0 0.0
2017-Mar-26 01:34N 47°38' W 122°23'0 0.0
2017-Mar-26 00:34N 47°38' W 122°23'0 0.0
2017-Mar-25 23:34N 47°38' W 122°23'0 0.0
2017-Mar-25 22:34N 47°38' W 122°23'0 0.0
2017-Mar-25 21:34N 47°38' W 122°23'4 4.3
2017-Mar-25 20:34N 47°41' W 122°28'8 7.5
2017-Mar-25 19:34N 47°48' W 122°28'8 8.3
2017-Mar-25 18:34N 47°56' W 122°32'9 7.8
2017-Mar-25 17:27N 48°03' W 122°40'6 6.4
2017-Mar-25 16:33N 48°08' W 122°43'6 6.4
2017-Mar-25 15:33N 48°11' W 122°52'7 7.4
2017-Mar-25 14:34N 48°12' W 123°03'8 8.4
2017-Mar-25 13:34N 48°10' W 123°15'7 6.6
2017-Mar-25 12:34N 48°08' W 123°25'0 0.0
2017-Mar-25 11:34N 48°08' W 123°25'6 6.3
2017-Mar-25 10:33N 48°10' W 123°16'6 6.5
2017-Mar-25 09:34N 48°12' W 123°07'6 6.4
2017-Mar-25 08:33N 48°12' W 122°57'7 7.1
2017-Mar-25 07:33N 48°11' W 122°47'6 6.2
2017-Mar-25 06:33N 48°07' W 122°40'8 8.1
2017-Mar-25 05:33N 47°60' W 122°35'8 8.4
2017-Mar-25 04:34N 47°53' W 122°28'9 9.1
2017-Mar-25 03:34N 47°44' W 122°26'9 9.2
2017-Mar-25 02:34N 47°35' W 122°27'10 9.5
2017-Mar-25 01:33N 47°26' W 122°31'10 9.7
2017-Mar-25 00:33N 47°16' W 122°33'11 0.5
2017-Mar-24 02:19N 47°10' W 122°47'5 7.0
2017-Mar-24 01:32N 47°11' W 122°39'7 6.8
2017-Mar-24 00:34N 47°16' W 122°33'7 7.3
2017-Mar-23 23:33N 47°24' W 122°32'8 8.1
2017-Mar-23 22:34N 47°32' W 122°29'8 7.6
2017-Mar-23 21:34N 47°39' W 122°29'7 7.3
2017-Mar-23 20:34N 47°46' W 122°27'9 8.7
2017-Mar-23 19:34N 47°55' W 122°31'9 8.2
2017-Mar-23 18:31N 48°01' W 122°39'8 7.6
2017-Mar-23 17:28N 48°09' W 122°44'8 9.0
2017-Mar-23 16:33N 48°11' W 122°56'9 8.5
2017-Mar-23 15:33N 48°11' W 123°09'8 8.1
2017-Mar-23 14:33N 48°09' W 123°20'3 3.2
2017-Mar-23 13:34N 48°08' W 123°25'0 0.0
2017-Mar-23 12:34N 48°08' W 123°25'0 0.0
2017-Mar-23 11:33N 48°08' W 123°25'3 3.2
2017-Mar-23 10:33N 48°09' W 123°20'8 8.0
2017-Mar-23 09:33N 48°12' W 123°09'8 7.7
2017-Mar-23 08:34N 48°12' W 122°58'8 7.8
2017-Mar-23 07:33N 48°11' W 122°46'6 5.9
2017-Mar-23 06:34N 48°07' W 122°39'7 6.8
2017-Mar-23 05:32N 48°01' W 122°36'7 7.5
2017-Mar-23 04:34N 47°55' W 122°29'9 8.8
2017-Mar-23 03:34N 47°47' W 122°26'10 9.7
2017-Mar-23 02:34N 47°37' W 122°27'9 9.4
2017-Mar-23 01:34N 47°28' W 122°31'10 9.6
2017-Mar-23 00:33N 47°18' W 122°33'14 0.6
2017-Mar-22 02:13N 47°11' W 122°49'6 7.2
2017-Mar-22 01:21N 47°11' W 122°40'6 7.7
2017-Mar-22 00:34N 47°16' W 122°34'7 6.8
2017-Mar-21 23:34N 47°22' W 122°32'8 8.3
2017-Mar-21 22:34N 47°30' W 122°29'9 8.6
2017-Mar-21 21:34N 47°39' W 122°28'8 8.1
2017-Mar-21 20:34N 47°47' W 122°28'8 7.8
2017-Mar-21 19:34N 47°55' W 122°31'8 7.5
2017-Mar-21 18:33N 48°01' W 122°38'8 8.1
2017-Mar-21 17:31N 48°08' W 122°43'9 8.9
2017-Mar-21 16:34N 48°11' W 122°55'9 8.5
2017-Mar-21 15:34N 48°11' W 123°08'9 9.3
2017-Mar-21 14:33N 48°09' W 123°22'2 2.3
2017-Mar-21 13:34N 48°08' W 123°25'0 0.0
2017-Mar-21 12:34N 48°08' W 123°25'5 4.6
2017-Mar-21 11:34N 48°10' W 123°19'8 8.3
2017-Mar-21 10:34N 48°13' W 123°07'8 8.3
2017-Mar-21 09:34N 48°12' W 122°55'8 8.4
2017-Mar-21 08:33N 48°09' W 122°43'8 7.8
2017-Mar-21 07:33N 48°02' W 122°38'7 7.5
2017-Mar-21 06:34N 47°57' W 122°31'8 7.6
2017-Mar-21 05:34N 47°49' W 122°27'7 7.1
2017-Mar-21 04:34N 47°42' W 122°26'7 6.8
2017-Mar-21 03:34N 47°36' W 122°27'7 7.1
2017-Mar-21 02:34N 47°29' W 122°30'8 8.1
2017-Mar-21 01:34N 47°21' W 122°32'8 8.2
2017-Mar-21 00:34N 47°13' W 122°36'  

Dump ship's entire track history